sensor_id;sensor_type;location;lat;lon;timestamp;P1;durP1;ratioP1;P2;durP2;ratioP2
69856;SDS011;57147;53.582;10.112;2023-04-28T00:00:17;11.52;;;7.53;;
69856;SDS011;57147;53.582;10.112;2023-04-28T00:05:21;11.60;;;7.38;;
69856;SDS011;57147;53.582;10.112;2023-04-28T00:10:21;10.52;;;6.93;;
69856;SDS011;57147;53.582;10.112;2023-04-28T00:15:22;11.07;;;6.75;;
69856;SDS011;57147;53.582;10.112;2023-04-28T00:20:25;9.88;;;6.55;;
69856;SDS011;57147;53.582;10.112;2023-04-28T00:25:26;13.68;;;7.18;;
69856;SDS011;57147;53.582;10.112;2023-04-28T00:30:28;15.85;;;9.13;;
69856;SDS011;57147;53.582;10.112;2023-04-28T00:35:31;17.35;;;9.90;;
69856;SDS011;57147;53.582;10.112;2023-04-28T00:40:32;17.25;;;9.05;;
69856;SDS011;57147;53.582;10.112;2023-04-28T00:45:33;14.27;;;7.72;;
69856;SDS011;57147;53.582;10.112;2023-04-28T00:50:36;13.02;;;7.53;;
69856;SDS011;57147;53.582;10.112;2023-04-28T00:55:37;13.07;;;8.13;;
69856;SDS011;57147;53.582;10.112;2023-04-28T01:00:38;12.20;;;7.40;;
69856;SDS011;57147;53.582;10.112;2023-04-28T01:05:41;15.15;;;9.70;;
69856;SDS011;57147;53.582;10.112;2023-04-28T01:10:42;14.32;;;7.90;;
69856;SDS011;57147;53.582;10.112;2023-04-28T01:15:43;14.25;;;7.10;;
69856;SDS011;57147;53.582;10.112;2023-04-28T01:20:46;10.43;;;6.95;;
69856;SDS011;57147;53.582;10.112;2023-04-28T01:25:50;12.15;;;7.80;;
69856;SDS011;57147;53.582;10.112;2023-04-28T01:30:50;11.45;;;6.85;;
69856;SDS011;57147;53.582;10.112;2023-04-28T01:35:51;12.52;;;8.68;;
69856;SDS011;57147;53.582;10.112;2023-04-28T01:40:59;9.80;;;6.70;;
69856;SDS011;57147;53.582;10.112;2023-04-28T01:45:59;11.50;;;6.50;;
69856;SDS011;57147;53.582;10.112;2023-04-28T01:51:00;12.10;;;6.57;;
69856;SDS011;57147;53.582;10.112;2023-04-28T01:56:03;13.38;;;6.68;;
69856;SDS011;57147;53.582;10.112;2023-04-28T02:01:04;12.48;;;8.45;;
69856;SDS011;57147;53.582;10.112;2023-04-28T02:06:05;11.57;;;7.30;;
69856;SDS011;57147;53.582;10.112;2023-04-28T02:11:08;11.65;;;6.80;;
69856;SDS011;57147;53.582;10.112;2023-04-28T02:16:11;12.15;;;7.47;;
69856;SDS011;57147;53.582;10.112;2023-04-28T02:21:11;14.40;;;7.57;;
69856;SDS011;57147;53.582;10.112;2023-04-28T02:26:14;15.52;;;7.55;;
69856;SDS011;57147;53.582;10.112;2023-04-28T02:31:15;13.38;;;7.60;;
69856;SDS011;57147;53.582;10.112;2023-04-28T02:36:16;13.18;;;6.57;;
69856;SDS011;57147;53.582;10.112;2023-04-28T02:41:20;14.07;;;7.18;;
69856;SDS011;57147;53.582;10.112;2023-04-28T02:46:21;12.85;;;7.22;;
69856;SDS011;57147;53.582;10.112;2023-04-28T02:51:21;14.05;;;7.28;;
69856;SDS011;57147;53.582;10.112;2023-04-28T02:56:25;12.50;;;7.63;;
69856;SDS011;57147;53.582;10.112;2023-04-28T03:01:26;10.75;;;6.65;;
69856;SDS011;57147;53.582;10.112;2023-04-28T03:06:26;12.38;;;7.00;;
69856;SDS011;57147;53.582;10.112;2023-04-28T03:11:30;16.40;;;8.07;;
69856;SDS011;57147;53.582;10.112;2023-04-28T03:16:31;14.10;;;8.05;;
69856;SDS011;57147;53.582;10.112;2023-04-28T03:21:32;17.85;;;8.70;;
69856;SDS011;57147;53.582;10.112;2023-04-28T03:26:35;12.10;;;6.68;;
69856;SDS011;57147;53.582;10.112;2023-04-28T03:31:36;10.95;;;7.07;;
69856;SDS011;57147;53.582;10.112;2023-04-28T03:36:36;8.77;;;4.97;;
69856;SDS011;57147;53.582;10.112;2023-04-28T03:41:40;10.02;;;6.15;;
69856;SDS011;57147;53.582;10.112;2023-04-28T03:46:41;15.02;;;8.40;;
69856;SDS011;57147;53.582;10.112;2023-04-28T03:51:42;10.50;;;6.80;;
69856;SDS011;57147;53.582;10.112;2023-04-28T03:56:45;11.98;;;6.53;;
69856;SDS011;57147;53.582;10.112;2023-04-28T04:01:46;11.98;;;7.13;;
69856;SDS011;57147;53.582;10.112;2023-04-28T04:06:46;10.57;;;6.65;;
69856;SDS011;57147;53.582;10.112;2023-04-28T04:11:50;10.40;;;6.28;;
69856;SDS011;57147;53.582;10.112;2023-04-28T04:16:50;8.85;;;5.80;;
69856;SDS011;57147;53.582;10.112;2023-04-28T04:21:51;12.70;;;6.57;;
69856;SDS011;57147;53.582;10.112;2023-04-28T04:26:54;12.48;;;6.45;;
69856;SDS011;57147;53.582;10.112;2023-04-28T04:31:55;10.38;;;5.70;;
69856;SDS011;57147;53.582;10.112;2023-04-28T04:36:56;10.27;;;5.72;;
69856;SDS011;57147;53.582;10.112;2023-04-28T04:41:59;8.98;;;5.88;;
69856;SDS011;57147;53.582;10.112;2023-04-28T04:47:00;10.43;;;6.18;;
69856;SDS011;57147;53.582;10.112;2023-04-28T04:52:00;8.82;;;5.25;;
69856;SDS011;57147;53.582;10.112;2023-04-28T04:57:03;8.15;;;5.47;;
69856;SDS011;57147;53.582;10.112;2023-04-28T05:02:04;12.70;;;5.53;;
69856;SDS011;57147;53.582;10.112;2023-04-28T05:07:05;9.90;;;7.97;;
69856;SDS011;57147;53.582;10.112;2023-04-28T05:12:08;9.98;;;5.47;;
69856;SDS011;57147;53.582;10.112;2023-04-28T05:17:09;9.13;;;5.45;;
69856;SDS011;57147;53.582;10.112;2023-04-28T05:22:09;7.65;;;5.85;;
69856;SDS011;57147;53.582;10.112;2023-04-28T05:27:12;7.35;;;4.38;;
69856;SDS011;57147;53.582;10.112;2023-04-28T05:32:13;8.13;;;5.03;;
69856;SDS011;57147;53.582;10.112;2023-04-28T05:37:14;6.22;;;3.95;;
69856;SDS011;57147;53.582;10.112;2023-04-28T05:42:17;8.07;;;4.80;;
69856;SDS011;57147;53.582;10.112;2023-04-28T05:47:18;8.77;;;5.30;;
69856;SDS011;57147;53.582;10.112;2023-04-28T05:52:18;9.75;;;5.07;;
69856;SDS011;57147;53.582;10.112;2023-04-28T05:57:21;6.28;;;3.88;;
69856;SDS011;57147;53.582;10.112;2023-04-28T06:02:22;6.10;;;3.65;;
69856;SDS011;57147;53.582;10.112;2023-04-28T06:07:26;9.70;;;6.78;;
69856;SDS011;57147;53.582;10.112;2023-04-28T06:12:30;5.25;;;3.83;;
69856;SDS011;57147;53.582;10.112;2023-04-28T06:17:31;7.32;;;4.95;;
69856;SDS011;57147;53.582;10.112;2023-04-28T06:22:31;10.57;;;4.38;;
69856;SDS011;57147;53.582;10.112;2023-04-28T06:27:35;7.55;;;4.45;;
69856;SDS011;57147;53.582;10.112;2023-04-28T06:32:36;9.77;;;4.72;;
69856;SDS011;57147;53.582;10.112;2023-04-28T06:37:40;5.60;;;2.83;;
69856;SDS011;57147;53.582;10.112;2023-04-28T06:42:44;5.85;;;2.78;;
69856;SDS011;57147;53.582;10.112;2023-04-28T06:47:44;5.85;;;3.33;;
69856;SDS011;57147;53.582;10.112;2023-04-28T06:52:45;4.78;;;2.78;;
69856;SDS011;57147;53.582;10.112;2023-04-28T06:57:48;4.55;;;3.17;;
69856;SDS011;57147;53.582;10.112;2023-04-28T07:02:49;5.85;;;3.50;;
69856;SDS011;57147;53.582;10.112;2023-04-28T07:07:50;3.45;;;1.85;;
69856;SDS011;57147;53.582;10.112;2023-04-28T07:12:53;6.18;;;2.85;;
69856;SDS011;57147;53.582;10.112;2023-04-28T07:17:54;7.35;;;3.20;;
69856;SDS011;57147;53.582;10.112;2023-04-28T07:22:55;9.88;;;3.97;;
69856;SDS011;57147;53.582;10.112;2023-04-28T07:28:01;5.68;;;3.40;;
69856;SDS011;57147;53.582;10.112;2023-04-28T07:33:02;4.78;;;2.13;;
69856;SDS011;57147;53.582;10.112;2023-04-28T07:38:03;7.85;;;1.98;;
69856;SDS011;57147;53.582;10.112;2023-04-28T07:43:06;4.68;;;2.35;;
69856;SDS011;57147;53.582;10.112;2023-04-28T07:48:07;6.55;;;2.95;;
69856;SDS011;57147;53.582;10.112;2023-04-28T07:53:08;4.53;;;2.28;;
69856;SDS011;57147;53.582;10.112;2023-04-28T07:58:11;3.05;;;2.15;;
69856;SDS011;57147;53.582;10.112;2023-04-28T08:03:13;4.05;;;3.03;;
69856;SDS011;57147;53.582;10.112;2023-04-28T08:08:13;5.32;;;3.13;;
69856;SDS011;57147;53.582;10.112;2023-04-28T08:13:16;6.57;;;2.95;;
69856;SDS011;57147;53.582;10.112;2023-04-28T08:18:17;6.50;;;3.60;;
69856;SDS011;57147;53.582;10.112;2023-04-28T08:23:19;7.75;;;3.72;;
69856;SDS011;57147;53.582;10.112;2023-04-28T08:33:53;6.88;;;3.25;;
69856;SDS011;57147;53.582;10.112;2023-04-28T08:38:55;4.28;;;2.78;;
69856;SDS011;57147;53.582;10.112;2023-04-28T08:49:11;4.30;;;1.83;;
69856;SDS011;57147;53.582;10.112;2023-04-28T08:54:15;5.82;;;3.35;;
69856;SDS011;57147;53.582;10.112;2023-04-28T09:04:28;5.30;;;2.60;;
69856;SDS011;57147;53.582;10.112;2023-04-28T09:09:29;6.47;;;2.58;;
69856;SDS011;57147;53.582;10.112;2023-04-28T09:14:31;5.90;;;2.75;;
69856;SDS011;57147;53.582;10.112;2023-04-28T09:19:36;8.05;;;2.97;;
69856;SDS011;57147;53.582;10.112;2023-04-28T09:24:37;6.63;;;3.83;;
69856;SDS011;57147;53.582;10.112;2023-04-28T09:29:47;6.57;;;4.50;;
69856;SDS011;57147;53.582;10.112;2023-04-28T09:34:54;5.22;;;3.03;;
69856;SDS011;57147;53.582;10.112;2023-04-28T09:39:55;11.55;;;5.13;;
69856;SDS011;57147;53.582;10.112;2023-04-28T09:44:57;6.43;;;3.15;;
69856;SDS011;57147;53.582;10.112;2023-04-28T09:50:01;4.57;;;2.67;;
69856;SDS011;57147;53.582;10.112;2023-04-28T09:55:03;5.85;;;3.47;;
69856;SDS011;57147;53.582;10.112;2023-04-28T10:00:06;8.25;;;3.15;;
69856;SDS011;57147;53.582;10.112;2023-04-28T10:05:10;5.75;;;3.05;;
69856;SDS011;57147;53.582;10.112;2023-04-28T10:10:11;5.35;;;3.22;;
69856;SDS011;57147;53.582;10.112;2023-04-28T10:15:12;5.38;;;3.28;;
69856;SDS011;57147;53.582;10.112;2023-04-28T10:20:16;10.32;;;3.67;;
69856;SDS011;57147;53.582;10.112;2023-04-28T10:25:22;6.00;;;3.63;;
69856;SDS011;57147;53.582;10.112;2023-04-28T10:30:26;6.47;;;3.58;;
69856;SDS011;57147;53.582;10.112;2023-04-28T10:35:41;7.95;;;4.20;;
69856;SDS011;57147;53.582;10.112;2023-04-28T10:40:43;5.78;;;4.10;;
69856;SDS011;57147;53.582;10.112;2023-04-28T10:46:00;5.78;;;3.63;;
69856;SDS011;57147;53.582;10.112;2023-04-28T10:56:39;5.53;;;2.67;;
69856;SDS011;57147;53.582;10.112;2023-04-28T11:07:31;6.88;;;4.18;;
69856;SDS011;57147;53.582;10.112;2023-04-28T11:12:34;5.78;;;3.08;;
69856;SDS011;57147;53.582;10.112;2023-04-28T11:17:37;5.85;;;3.28;;
69856;SDS011;57147;53.582;10.112;2023-04-28T11:22:39;5.53;;;4.18;;
69856;SDS011;57147;53.582;10.112;2023-04-28T11:27:43;6.05;;;4.75;;
69856;SDS011;57147;53.582;10.112;2023-04-28T11:32:43;6.43;;;3.70;;
69856;SDS011;57147;53.582;10.112;2023-04-28T11:37:44;6.53;;;2.88;;
69856;SDS011;57147;53.582;10.112;2023-04-28T11:42:50;5.78;;;2.55;;
69856;SDS011;57147;53.582;10.112;2023-04-28T11:47:51;5.93;;;3.33;;
69856;SDS011;57147;53.582;10.112;2023-04-28T11:52:53;6.47;;;3.38;;
69856;SDS011;57147;53.582;10.112;2023-04-28T12:03:21;7.00;;;3.28;;
69856;SDS011;57147;53.582;10.112;2023-04-28T12:08:26;8.80;;;4.47;;
69856;SDS011;57147;53.582;10.112;2023-04-28T12:13:32;6.03;;;3.40;;
69856;SDS011;57147;53.582;10.112;2023-04-28T12:18:33;6.15;;;3.42;;
69856;SDS011;57147;53.582;10.112;2023-04-28T12:23:34;6.53;;;4.00;;
69856;SDS011;57147;53.582;10.112;2023-04-28T12:28:39;7.95;;;3.90;;
69856;SDS011;57147;53.582;10.112;2023-04-28T12:33:40;6.20;;;3.25;;
69856;SDS011;57147;53.582;10.112;2023-04-28T12:38:46;6.47;;;3.45;;
69856;SDS011;57147;53.582;10.112;2023-04-28T12:43:49;9.45;;;4.57;;
69856;SDS011;57147;53.582;10.112;2023-04-28T12:48:51;8.65;;;4.57;;
69856;SDS011;57147;53.582;10.112;2023-04-28T12:53:51;9.90;;;5.07;;
69856;SDS011;57147;53.582;10.112;2023-04-28T12:58:54;7.57;;;4.65;;
69856;SDS011;57147;53.582;10.112;2023-04-28T13:03:55;5.28;;;3.38;;
69856;SDS011;57147;53.582;10.112;2023-04-28T13:08:56;6.43;;;3.17;;
69856;SDS011;57147;53.582;10.112;2023-04-28T13:13:59;8.63;;;4.28;;
69856;SDS011;57147;53.582;10.112;2023-04-28T13:19:00;7.45;;;4.85;;
69856;SDS011;57147;53.582;10.112;2023-04-28T13:24:00;7.30;;;3.90;;
69856;SDS011;57147;53.582;10.112;2023-04-28T13:29:04;7.65;;;3.92;;
69856;SDS011;57147;53.582;10.112;2023-04-28T13:34:04;7.35;;;4.57;;
69856;SDS011;57147;53.582;10.112;2023-04-28T13:39:05;5.45;;;3.67;;
69856;SDS011;57147;53.582;10.112;2023-04-28T13:44:08;9.00;;;4.53;;
69856;SDS011;57147;53.582;10.112;2023-04-28T13:49:09;9.20;;;4.78;;
69856;SDS011;57147;53.582;10.112;2023-04-28T13:54:10;8.00;;;4.00;;
69856;SDS011;57147;53.582;10.112;2023-04-28T13:59:14;7.07;;;4.40;;
69856;SDS011;57147;53.582;10.112;2023-04-28T14:09:15;7.17;;;4.67;;
69856;SDS011;57147;53.582;10.112;2023-04-28T14:14:18;7.07;;;4.25;;
69856;SDS011;57147;53.582;10.112;2023-04-28T14:19:20;9.20;;;4.05;;
69856;SDS011;57147;53.582;10.112;2023-04-28T14:24:20;6.78;;;4.68;;
69856;SDS011;57147;53.582;10.112;2023-04-28T14:29:24;10.95;;;7.97;;
69856;SDS011;57147;53.582;10.112;2023-04-28T14:34:24;7.97;;;3.92;;
69856;SDS011;57147;53.582;10.112;2023-04-28T14:39:25;7.32;;;4.70;;
69856;SDS011;57147;53.582;10.112;2023-04-28T14:44:29;10.27;;;6.45;;
69856;SDS011;57147;53.582;10.112;2023-04-28T14:49:29;8.77;;;4.75;;
69856;SDS011;57147;53.582;10.112;2023-04-28T14:54:30;6.03;;;4.85;;
69856;SDS011;57147;53.582;10.112;2023-04-28T14:59:33;7.72;;;5.38;;
69856;SDS011;57147;53.582;10.112;2023-04-28T15:04:35;10.80;;;8.82;;
69856;SDS011;57147;53.582;10.112;2023-04-28T15:09:37;8.50;;;5.60;;
69856;SDS011;57147;53.582;10.112;2023-04-28T15:14:40;7.82;;;4.65;;
69856;SDS011;57147;53.582;10.112;2023-04-28T15:19:41;8.25;;;5.03;;
69856;SDS011;57147;53.582;10.112;2023-04-28T15:24:41;6.75;;;4.97;;
69856;SDS011;57147;53.582;10.112;2023-04-28T15:29:44;9.80;;;5.35;;
69856;SDS011;57147;53.582;10.112;2023-04-28T15:34:45;8.57;;;5.03;;
69856;SDS011;57147;53.582;10.112;2023-04-28T15:39:46;10.82;;;6.85;;
69856;SDS011;57147;53.582;10.112;2023-04-28T15:44:49;9.98;;;5.68;;
69856;SDS011;57147;53.582;10.112;2023-04-28T15:49:49;9.30;;;5.07;;
69856;SDS011;57147;53.582;10.112;2023-04-28T15:54:50;6.90;;;4.65;;
69856;SDS011;57147;53.582;10.112;2023-04-28T15:59:53;9.48;;;5.22;;
69856;SDS011;57147;53.582;10.112;2023-04-28T16:04:54;11.35;;;5.47;;
69856;SDS011;57147;53.582;10.112;2023-04-28T16:09:54;8.13;;;4.82;;
69856;SDS011;57147;53.582;10.112;2023-04-28T16:14:58;10.05;;;5.30;;
69856;SDS011;57147;53.582;10.112;2023-04-28T16:19:58;9.95;;;4.95;;
69856;SDS011;57147;53.582;10.112;2023-04-28T16:24:59;9.70;;;5.95;;
69856;SDS011;57147;53.582;10.112;2023-04-28T16:30:07;9.13;;;4.80;;
69856;SDS011;57147;53.582;10.112;2023-04-28T16:35:08;6.72;;;3.83;;
69856;SDS011;57147;53.582;10.112;2023-04-28T16:40:09;9.85;;;7.22;;
69856;SDS011;57147;53.582;10.112;2023-04-28T16:45:14;6.60;;;5.43;;
69856;SDS011;57147;53.582;10.112;2023-04-28T16:50:15;9.98;;;4.13;;
69856;SDS011;57147;53.582;10.112;2023-04-28T16:55:15;8.93;;;4.95;;
69856;SDS011;57147;53.582;10.112;2023-04-28T17:00:19;17.15;;;9.25;;
69856;SDS011;57147;53.582;10.112;2023-04-28T17:05:20;11.20;;;7.00;;
69856;SDS011;57147;53.582;10.112;2023-04-28T17:10:21;12.27;;;8.38;;
69856;SDS011;57147;53.582;10.112;2023-04-28T17:15:24;10.75;;;7.20;;
69856;SDS011;57147;53.582;10.112;2023-04-28T17:20:25;13.85;;;9.32;;
69856;SDS011;57147;53.582;10.112;2023-04-28T17:25:26;14.55;;;9.10;;
69856;SDS011;57147;53.582;10.112;2023-04-28T17:30:29;17.08;;;11.07;;
69856;SDS011;57147;53.582;10.112;2023-04-28T17:35:30;17.42;;;13.20;;
69856;SDS011;57147;53.582;10.112;2023-04-28T17:40:30;17.90;;;9.70;;
69856;SDS011;57147;53.582;10.112;2023-04-28T17:45:33;17.13;;;10.15;;
69856;SDS011;57147;53.582;10.112;2023-04-28T17:50:34;15.15;;;9.77;;
69856;SDS011;57147;53.582;10.112;2023-04-28T17:55:35;20.48;;;11.38;;
69856;SDS011;57147;53.582;10.112;2023-04-28T18:00:38;17.42;;;12.02;;
69856;SDS011;57147;53.582;10.112;2023-04-28T18:05:38;19.15;;;12.18;;
69856;SDS011;57147;53.582;10.112;2023-04-28T18:10:39;19.00;;;12.05;;
69856;SDS011;57147;53.582;10.112;2023-04-28T18:15:43;19.50;;;12.40;;
69856;SDS011;57147;53.582;10.112;2023-04-28T18:20:46;24.35;;;14.10;;
69856;SDS011;57147;53.582;10.112;2023-04-28T18:25:46;22.75;;;16.20;;
69856;SDS011;57147;53.582;10.112;2023-04-28T18:30:54;28.08;;;16.40;;
69856;SDS011;57147;53.582;10.112;2023-04-28T18:35:58;29.67;;;18.15;;
69856;SDS011;57147;53.582;10.112;2023-04-28T18:40:59;51.70;;;24.23;;
69856;SDS011;57147;53.582;10.112;2023-04-28T18:46:03;70.10;;;29.73;;
69856;SDS011;57147;53.582;10.112;2023-04-28T18:51:03;48.92;;;26.08;;
69856;SDS011;57147;53.582;10.112;2023-04-28T18:56:04;67.43;;;30.58;;
69856;SDS011;57147;53.582;10.112;2023-04-28T19:01:16;56.95;;;26.98;;
69856;SDS011;57147;53.582;10.112;2023-04-28T19:06:17;73.45;;;28.52;;
69856;SDS011;57147;53.582;10.112;2023-04-28T19:11:18;63.42;;;31.05;;
69856;SDS011;57147;53.582;10.112;2023-04-28T19:16:21;60.92;;;29.10;;
69856;SDS011;57147;53.582;10.112;2023-04-28T19:21:22;42.42;;;22.98;;
69856;SDS011;57147;53.582;10.112;2023-04-28T19:26:23;58.22;;;27.90;;
69856;SDS011;57147;53.582;10.112;2023-04-28T19:31:26;45.13;;;26.25;;
69856;SDS011;57147;53.582;10.112;2023-04-28T19:36:27;57.25;;;31.58;;
69856;SDS011;57147;53.582;10.112;2023-04-28T19:41:27;65.07;;;32.25;;
69856;SDS011;57147;53.582;10.112;2023-04-28T19:46:31;69.13;;;33.05;;
69856;SDS011;57147;53.582;10.112;2023-04-28T19:51:32;50.88;;;26.30;;
69856;SDS011;57147;53.582;10.112;2023-04-28T19:56:33;68.93;;;30.92;;
69856;SDS011;57147;53.582;10.112;2023-04-28T20:01:36;60.50;;;28.50;;
69856;SDS011;57147;53.582;10.112;2023-04-28T20:06:37;86.55;;;33.97;;
69856;SDS011;57147;53.582;10.112;2023-04-28T20:11:37;61.75;;;28.85;;
69856;SDS011;57147;53.582;10.112;2023-04-28T20:16:40;63.35;;;30.45;;
69856;SDS011;57147;53.582;10.112;2023-04-28T20:21:41;86.88;;;31.83;;
69856;SDS011;57147;53.582;10.112;2023-04-28T20:26:46;86.13;;;30.05;;
69856;SDS011;57147;53.582;10.112;2023-04-28T20:31:51;75.72;;;28.23;;
69856;SDS011;57147;53.582;10.112;2023-04-28T20:36:53;65.20;;;29.50;;
69856;SDS011;57147;53.582;10.112;2023-04-28T20:41:58;65.15;;;28.25;;
69856;SDS011;57147;53.582;10.112;2023-04-28T20:47:01;63.85;;;27.25;;
69856;SDS011;57147;53.582;10.112;2023-04-28T20:52:08;66.43;;;29.52;;
69856;SDS011;57147;53.582;10.112;2023-04-28T21:07:42;56.17;;;23.77;;
69856;SDS011;57147;53.582;10.112;2023-04-28T21:12:48;44.60;;;22.05;;
69856;SDS011;57147;53.582;10.112;2023-04-28T21:17:55;43.42;;;21.05;;
69856;SDS011;57147;53.582;10.112;2023-04-28T21:22:56;54.85;;;22.08;;
69856;SDS011;57147;53.582;10.112;2023-04-28T21:28:03;36.65;;;19.90;;
69856;SDS011;57147;53.582;10.112;2023-04-28T21:33:06;37.25;;;20.35;;
69856;SDS011;57147;53.582;10.112;2023-04-28T21:38:07;43.35;;;21.27;;
69856;SDS011;57147;53.582;10.112;2023-04-28T21:43:07;56.67;;;24.70;;
69856;SDS011;57147;53.582;10.112;2023-04-28T21:48:11;59.38;;;23.60;;
69856;SDS011;57147;53.582;10.112;2023-04-28T21:53:11;44.80;;;21.45;;
69856;SDS011;57147;53.582;10.112;2023-04-28T21:58:12;37.58;;;23.17;;
69856;SDS011;57147;53.582;10.112;2023-04-28T22:03:15;35.65;;;17.92;;
69856;SDS011;57147;53.582;10.112;2023-04-28T22:08:16;53.15;;;21.95;;
69856;SDS011;57147;53.582;10.112;2023-04-28T22:13:16;47.90;;;21.27;;
69856;SDS011;57147;53.582;10.112;2023-04-28T22:18:20;39.83;;;21.35;;
69856;SDS011;57147;53.582;10.112;2023-04-28T22:23:20;27.85;;;15.15;;
69856;SDS011;57147;53.582;10.112;2023-04-28T22:28:21;30.75;;;18.00;;
69856;SDS011;57147;53.582;10.112;2023-04-28T22:33:24;28.00;;;14.98;;
69856;SDS011;57147;53.582;10.112;2023-04-28T22:38:25;30.30;;;15.75;;
69856;SDS011;57147;53.582;10.112;2023-04-28T22:43:25;24.08;;;12.45;;
69856;SDS011;57147;53.582;10.112;2023-04-28T22:48:29;27.15;;;15.45;;
69856;SDS011;57147;53.582;10.112;2023-04-28T22:53:29;26.58;;;15.75;;
69856;SDS011;57147;53.582;10.112;2023-04-28T22:58:30;26.52;;;14.05;;
69856;SDS011;57147;53.582;10.112;2023-04-28T23:03:33;23.08;;;13.32;;
69856;SDS011;57147;53.582;10.112;2023-04-28T23:08:34;25.80;;;13.98;;
69856;SDS011;57147;53.582;10.112;2023-04-28T23:13:34;23.42;;;12.90;;
69856;SDS011;57147;53.582;10.112;2023-04-28T23:18:38;23.77;;;13.13;;
69856;SDS011;57147;53.582;10.112;2023-04-28T23:23:38;18.70;;;11.48;;
69856;SDS011;57147;53.582;10.112;2023-04-28T23:28:39;24.38;;;12.82;;
69856;SDS011;57147;53.582;10.112;2023-04-28T23:33:42;21.05;;;13.05;;
69856;SDS011;57147;53.582;10.112;2023-04-28T23:38:43;20.35;;;13.00;;
69856;SDS011;57147;53.582;10.112;2023-04-28T23:43:44;21.88;;;14.73;;
69856;SDS011;57147;53.582;10.112;2023-04-28T23:48:47;18.02;;;11.60;;
69856;SDS011;57147;53.582;10.112;2023-04-28T23:53:47;22.90;;;12.30;;
69856;SDS011;57147;53.582;10.112;2023-04-28T23:58:48;21.23;;;13.27;;
